createdAt,value
2023-03-27T00:01:00.120Z,3.20
2023-03-27T00:03:27.277Z,2.60
2023-03-27T00:06:00.717Z,2.20
2023-03-27T00:08:27.460Z,2.63
2023-03-27T00:10:55.119Z,3.37
2023-03-27T00:13:21.735Z,3.33
2023-03-27T00:15:48.081Z,3.43
2023-03-27T00:18:15.746Z,3.93
2023-03-27T00:20:42.541Z,1.60
2023-03-27T00:23:08.980Z,3.60
2023-03-27T00:25:35.503Z,3.23
2023-03-27T00:28:02.680Z,2.83
2023-03-27T00:30:30.130Z,4.70
2023-03-27T00:32:56.748Z,4.07
2023-03-27T00:35:24.033Z,3.47
2023-03-27T00:37:50.630Z,3.40
2023-03-27T00:40:19.983Z,2.30
2023-03-27T00:42:48.107Z,5.60
2023-03-27T00:45:16.248Z,4.27
2023-03-27T00:47:42.677Z,2.77
2023-03-27T00:50:16.833Z,3.20
2023-03-27T00:52:44.479Z,3.60
2023-03-27T00:55:14.157Z,2.80
2023-03-27T00:57:46.013Z,2.67
2023-03-27T01:00:14.366Z,1.90
2023-03-27T01:02:42.667Z,4.33
2023-03-27T01:05:09.979Z,3.27
2023-03-27T01:07:37.206Z,2.40
2023-03-27T01:10:07.688Z,2.13
2023-03-27T01:12:53.133Z,3.55
2023-03-27T01:15:48.727Z,4.07
2023-03-27T01:18:21.434Z,2.30
2023-03-27T01:21:02.227Z,2.90
2023-03-27T01:24:00.123Z,2.55
2023-03-27T01:26:46.078Z,2.47
2023-03-27T01:29:25.234Z,3.70
2023-03-27T01:31:51.697Z,2.60
2023-03-27T01:34:33.440Z,2.97
2023-03-27T01:37:12.400Z,4.03
2023-03-27T01:39:42.870Z,3.80
2023-03-27T01:42:09.396Z,1.73
2023-03-27T01:44:45.292Z,2.57
2023-03-27T01:47:21.495Z,1.73
2023-03-27T01:49:57.832Z,5.10
2023-03-27T01:52:28.131Z,3.80
2023-03-27T01:54:58.187Z,5.27
2023-03-27T01:57:27.838Z,4.93
2023-03-27T02:00:19.372Z,3.17
2023-03-27T02:02:49.321Z,2.20
2023-03-27T02:05:19.585Z,2.77
2023-03-27T02:07:51.462Z,2.92
2023-03-27T02:10:22.986Z,3.30
2023-03-27T02:12:52.508Z,1.83
2023-03-27T02:15:23.647Z,3.67
2023-03-27T02:18:04.932Z,3.10
2023-03-27T02:20:32.648Z,2.00
2023-03-27T02:23:02.281Z,2.30
2023-03-27T02:25:28.774Z,1.87
2023-03-27T02:28:07.368Z,3.13
2023-03-27T02:30:36.152Z,2.70
2023-03-27T02:33:24.992Z,3.17
2023-03-27T02:36:01.119Z,3.30
2023-03-27T02:38:27.500Z,2.23
2023-03-27T02:41:05.801Z,3.70
2023-03-27T02:43:35.631Z,3.37
2023-03-27T02:46:04.786Z,2.73
2023-03-27T02:48:35.383Z,1.27
2023-03-27T02:51:04.330Z,2.13
2023-03-27T02:53:32.476Z,2.40
2023-03-27T02:56:00.527Z,2.63
2023-03-27T02:58:47.312Z,6.03
2023-03-27T03:01:16.601Z,3.90
2023-03-27T03:03:48.947Z,2.57
2023-03-27T03:06:15.374Z,2.43
2023-03-27T03:08:42.712Z,2.13
2023-03-27T03:11:10.480Z,1.83
2023-03-27T03:13:37.908Z,2.20
2023-03-27T03:16:04.694Z,4.87
2023-03-27T03:18:31.093Z,3.07
2023-03-27T03:20:57.608Z,1.17
2023-03-27T03:23:24.254Z,0.67
2023-03-27T03:25:52.642Z,1.50
2023-03-27T03:28:19.552Z,2.13
2023-03-27T03:30:50.330Z,1.63
2023-03-27T03:33:17.907Z,2.55
2023-03-27T03:35:46.853Z,1.80
2023-03-27T03:38:13.207Z,0.93
2023-03-27T03:40:39.639Z,1.77
2023-03-27T03:43:06.153Z,1.00
2023-03-27T03:45:32.624Z,0.97
2023-03-27T03:47:59.110Z,2.10
2023-03-27T03:50:25.605Z,2.87
2023-03-27T03:52:52.044Z,2.37
2023-03-27T03:55:18.555Z,1.93
2023-03-27T03:57:47.061Z,1.50
2023-03-27T04:00:13.604Z,1.00
2023-03-27T04:02:41.549Z,0.97
2023-03-27T04:05:09.579Z,4.30
2023-03-27T04:07:36.609Z,2.33
2023-03-27T04:10:03.783Z,1.53
2023-03-27T04:12:30.297Z,1.30
2023-03-27T04:15:16.993Z,1.60
2023-03-27T04:17:43.969Z,1.63
2023-03-27T04:20:12.567Z,2.10
2023-03-27T04:22:39.045Z,1.57
2023-03-27T04:25:06.383Z,1.70
2023-03-27T04:27:32.774Z,1.37
2023-03-27T04:29:59.264Z,1.20
2023-03-27T04:32:26.235Z,2.73
2023-03-27T04:34:54.438Z,2.60
2023-03-27T04:37:23.147Z,1.57
2023-03-27T04:39:50.363Z,3.93
2023-03-27T04:42:16.717Z,1.90
2023-03-27T04:44:46.476Z,5.50
2023-03-27T04:47:12.932Z,3.30
2023-03-27T04:49:40.581Z,7.13
2023-03-27T04:52:07.220Z,3.30
2023-03-27T04:54:33.864Z,2.10
2023-03-27T04:57:01.923Z,2.53
2023-03-27T04:59:32.155Z,1.93
2023-03-27T05:01:59.043Z,2.80
2023-03-27T05:04:28.621Z,1.57
2023-03-27T05:06:55.740Z,1.67
2023-03-27T05:09:22.572Z,1.77
2023-03-27T05:11:52.571Z,3.20
2023-03-27T05:14:19.971Z,2.20
2023-03-27T05:16:46.724Z,3.03
2023-03-27T05:19:13.193Z,4.67
2023-03-27T05:21:39.871Z,2.33
2023-03-27T05:24:06.487Z,3.47
2023-03-27T05:26:33.118Z,3.27
2023-03-27T05:28:59.690Z,2.53
2023-03-27T05:31:27.125Z,2.70
2023-03-27T05:33:54.102Z,4.20
2023-03-27T05:36:22.047Z,3.97
2023-03-27T05:38:48.377Z,3.30
2023-03-27T05:41:16.101Z,2.93
2023-03-27T05:43:42.923Z,3.10
2023-03-27T05:46:09.530Z,3.73
2023-03-27T05:48:36.024Z,11.03
2023-03-27T05:51:02.570Z,3.97
2023-03-27T05:53:29.055Z,4.43
2023-03-27T05:56:02.462Z,3.43
2023-03-27T05:58:29.910Z,2.50
2023-03-27T06:00:56.602Z,4.40
2023-03-27T06:03:24.641Z,3.80
2023-03-27T06:05:52.354Z,3.80
2023-03-27T06:08:19.368Z,6.10
2023-03-27T06:10:45.793Z,4.60
2023-03-27T06:13:13.725Z,4.33
2023-03-27T06:15:49.873Z,4.23
2023-03-27T06:18:28.380Z,3.50
2023-03-27T06:20:58.826Z,4.20
2023-03-27T06:23:28.596Z,4.33
2023-03-27T06:25:58.718Z,4.30
2023-03-27T06:28:28.020Z,8.23
2023-03-27T06:30:59.341Z,13.60
2023-03-27T06:33:31.059Z,7.75
2023-03-27T06:36:01.800Z,5.77
2023-03-27T06:38:32.127Z,3.60
2023-03-27T06:40:59.820Z,5.80
2023-03-27T06:43:26.448Z,8.10
2023-03-27T06:45:53.071Z,5.37
2023-03-27T06:48:21.960Z,7.50
2023-03-27T06:50:49.736Z,5.33
2023-03-27T06:53:26.377Z,7.00
2023-03-27T06:55:54.015Z,5.83
2023-03-27T06:58:20.846Z,5.77
2023-03-27T07:00:49.714Z,4.80
2023-03-27T07:03:17.744Z,4.80
2023-03-27T07:05:44.356Z,7.33
2023-03-27T07:08:22.432Z,3.93
2023-03-27T07:10:56.745Z,6.40
2023-03-27T07:13:27.113Z,3.60
2023-03-27T07:15:54.823Z,3.37
2023-03-27T07:18:22.494Z,2.80
2023-03-27T07:20:50.375Z,3.10
2023-03-27T07:23:16.894Z,4.37
2023-03-27T07:25:43.437Z,4.57
2023-03-27T07:28:12.263Z,4.50
2023-03-27T07:30:38.937Z,3.40
2023-03-27T07:33:07.235Z,3.57
2023-03-27T07:35:33.886Z,4.67
2023-03-27T07:38:01.870Z,3.90
2023-03-27T07:40:38.785Z,4.40
2023-03-27T07:43:07.361Z,3.93
2023-03-27T07:45:34.717Z,4.00
2023-03-27T07:48:09.094Z,3.03
2023-03-27T07:50:36.139Z,3.90
2023-03-27T07:53:02.689Z,3.07
2023-03-27T07:55:31.999Z,2.93
2023-03-27T07:58:02.452Z,3.20
2023-03-27T08:00:31.166Z,5.83
2023-03-27T08:03:06.787Z,2.40
2023-03-27T08:05:33.629Z,3.73
2023-03-27T08:08:00.116Z,3.63
2023-03-27T08:10:26.924Z,2.92
2023-03-27T08:12:53.379Z,3.20
2023-03-27T08:15:19.908Z,3.73
2023-03-27T08:17:46.900Z,2.93
2023-03-27T08:20:15.105Z,3.90
2023-03-27T08:22:41.501Z,2.50
2023-03-27T08:25:10.040Z,1.57
2023-03-27T08:27:36.721Z,2.50
2023-03-27T08:30:04.625Z,2.93
2023-03-27T08:32:31.765Z,1.83
2023-03-27T08:34:58.194Z,3.27
2023-03-27T08:37:24.677Z,1.90
2023-03-27T08:39:51.057Z,2.10
2023-03-27T08:42:20.489Z,2.43
2023-03-27T08:44:47.722Z,1.50
2023-03-27T08:47:16.901Z,1.30
2023-03-27T08:49:47.799Z,1.37
2023-03-27T08:52:16.297Z,1.58
2023-03-27T08:54:44.717Z,1.33
2023-03-27T08:57:16.890Z,1.77
2023-03-27T08:59:43.367Z,2.63
2023-03-27T09:02:21.964Z,3.57
2023-03-27T09:04:56.522Z,2.23
2023-03-27T09:07:34.449Z,1.70
2023-03-27T09:10:05.559Z,2.27
2023-03-27T09:15:09.660Z,2.03
2023-03-27T09:17:39.146Z,2.17
2023-03-27T09:20:10.376Z,1.80
2023-03-27T09:25:08.233Z,1.37
2023-03-27T09:27:36.416Z,1.37
2023-03-27T09:30:11.736Z,1.73
2023-03-27T09:32:38.933Z,1.60
2023-03-27T09:35:05.746Z,1.57
2023-03-27T09:37:32.149Z,1.73
2023-03-27T09:40:00.059Z,4.57
2023-03-27T09:42:28.822Z,2.20
2023-03-27T09:44:57.246Z,1.93
2023-03-27T09:47:36.393Z,2.87
2023-03-27T09:50:12.273Z,2.43
2023-03-27T09:52:39.882Z,3.73
2023-03-27T09:55:24.102Z,1.70
2023-03-27T09:57:52.730Z,2.87
2023-03-27T10:00:27.636Z,2.97
2023-03-27T10:03:01.479Z,2.70
2023-03-27T10:05:28.098Z,2.07
2023-03-27T10:07:54.534Z,2.13
2023-03-27T10:10:21.732Z,2.80
2023-03-27T10:12:53.049Z,2.70
2023-03-27T10:17:48.506Z,1.73
2023-03-27T10:20:19.670Z,3.07
2023-03-27T10:22:56.725Z,3.10
2023-03-27T10:25:29.432Z,3.83
2023-03-27T10:28:06.800Z,3.20
2023-03-27T10:30:34.221Z,2.03
2023-03-27T10:33:00.678Z,2.50
2023-03-27T10:35:28.085Z,4.10
2023-03-27T10:37:55.324Z,3.67
2023-03-27T10:40:24.423Z,4.37
2023-03-27T10:42:50.896Z,4.37
2023-03-27T10:45:19.839Z,4.33
2023-03-27T10:47:48.371Z,2.93
2023-03-27T10:50:23.703Z,3.77
2023-03-27T10:53:00.876Z,7.37
2023-03-27T10:55:44.818Z,5.57
2023-03-27T10:58:28.062Z,4.10
2023-03-27T11:01:01.638Z,5.77
2023-03-27T11:03:31.535Z,5.60
2023-03-27T11:05:58.948Z,4.03
2023-03-27T11:08:25.454Z,4.70
2023-03-27T11:10:52.629Z,4.73
2023-03-27T11:13:28.344Z,7.33
2023-03-27T11:16:14.552Z,5.17
2023-03-27T11:19:01.205Z,6.30
2023-03-27T11:21:40.491Z,5.20
2023-03-27T11:24:11.135Z,5.77
2023-03-27T11:26:45.894Z,4.68
2023-03-27T11:29:23.049Z,6.13
2023-03-27T11:31:51.675Z,7.13
2023-03-27T11:34:28.838Z,6.47
2023-03-27T11:37:12.884Z,8.50
2023-03-27T11:39:44.631Z,6.10
2023-03-27T11:42:18.972Z,9.67
2023-03-27T11:44:45.607Z,10.20
2023-03-27T11:47:27.247Z,13.20
2023-03-27T11:50:32.221Z,5.63
2023-03-27T11:53:12.853Z,6.40
2023-03-27T11:55:43.523Z,9.52
2023-03-27T11:58:39.111Z,8.57
2023-03-27T12:01:12.806Z,7.70
2023-03-27T12:04:01.681Z,6.43
2023-03-27T12:06:48.540Z,7.47
2023-03-27T12:09:15.753Z,6.67
2023-03-27T12:11:44.922Z,5.53
2023-03-27T12:14:40.633Z,7.43
2023-03-27T12:17:22.620Z,6.33
2023-03-27T12:22:24.548Z,7.80
2023-03-27T12:25:16.876Z,7.53
2023-03-27T12:28:01.210Z,6.77
2023-03-27T12:30:42.678Z,5.23
2023-03-27T12:33:24.395Z,6.63
2023-03-27T12:35:52.182Z,7.60
2023-03-27T12:38:23.862Z,6.53
2023-03-27T12:41:00.324Z,9.80
2023-03-27T12:43:31.557Z,5.60
2023-03-27T12:48:24.143Z,7.47
2023-03-27T12:50:50.455Z,8.07
2023-03-27T12:53:19.852Z,8.20
2023-03-27T12:55:46.334Z,6.67
2023-03-27T12:58:28.639Z,7.73
2023-03-27T13:01:00.368Z,9.37
2023-03-27T13:03:50.404Z,5.30
2023-03-27T13:06:35.503Z,9.17
2023-03-27T13:09:21.231Z,5.47
2023-03-27T13:11:50.899Z,11.83
2023-03-27T13:14:33.076Z,11.07
2023-03-27T13:17:08.719Z,8.93
2023-03-27T13:19:58.652Z,11.40
2023-03-27T13:22:37.115Z,8.53
2023-03-27T13:25:04.191Z,12.10
2023-03-27T13:27:37.165Z,9.70
2023-03-27T13:30:04.309Z,8.03
2023-03-27T13:32:33.829Z,5.87
2023-03-27T13:35:04.857Z,7.57
2023-03-27T13:37:36.965Z,7.47
2023-03-27T13:40:40.524Z,9.37
2023-03-27T13:43:25.149Z,9.70
2023-03-27T13:45:55.206Z,9.00
2023-03-27T13:48:48.412Z,8.40
2023-03-27T13:51:20.572Z,9.20
2023-03-27T13:54:06.076Z,7.90
2023-03-27T13:56:37.885Z,10.50
2023-03-27T13:59:10.125Z,7.53
2023-03-27T14:01:46.120Z,10.37
2023-03-27T14:04:33.214Z,8.03
2023-03-27T14:07:07.708Z,6.70
2023-03-27T14:09:43.270Z,11.70
2023-03-27T14:12:28.411Z,6.67
2023-03-27T14:15:09.913Z,11.00
2023-03-27T14:18:03.416Z,12.20
2023-03-27T14:20:29.861Z,8.77
2023-03-27T14:22:58.385Z,8.37
2023-03-27T14:25:31.275Z,10.27
2023-03-27T14:27:58.224Z,7.30
2023-03-27T14:30:29.190Z,6.97
2023-03-27T14:32:56.454Z,11.25
2023-03-27T14:35:24.682Z,9.63
2023-03-27T14:37:55.954Z,23.13
2023-03-27T14:42:50.050Z,7.17
2023-03-27T14:45:20.284Z,8.73
2023-03-27T14:47:48.167Z,6.37
2023-03-27T14:50:14.910Z,10.60
2023-03-27T14:52:41.499Z,8.03
2023-03-27T14:55:10.236Z,10.97
2023-03-27T14:57:38.747Z,13.23
2023-03-27T15:00:07.854Z,8.13
2023-03-27T15:02:35.263Z,8.47
2023-03-27T15:05:03.603Z,8.37
2023-03-27T15:07:33.823Z,12.07
2023-03-27T15:10:06.068Z,8.23
2023-03-27T15:12:36.007Z,8.57
2023-03-27T15:15:02.549Z,10.20
2023-03-27T15:17:30.636Z,9.97
2023-03-27T15:20:09.955Z,10.27
2023-03-27T15:22:38.948Z,7.60
2023-03-27T15:25:05.454Z,11.43
2023-03-27T15:27:34.148Z,7.23
2023-03-27T15:30:05.964Z,7.63
2023-03-27T15:32:42.346Z,8.17
2023-03-27T15:35:13.717Z,9.03
2023-03-27T15:37:40.266Z,8.93
2023-03-27T15:40:10.993Z,8.27
2023-03-27T15:42:52.803Z,7.57
2023-03-27T15:45:21.248Z,6.23
2023-03-27T15:47:59.883Z,4.60
2023-03-27T15:50:29.327Z,7.23
2023-03-27T15:52:58.122Z,9.60
2023-03-27T15:55:30.747Z,9.60
2023-03-27T15:57:57.671Z,8.47
2023-03-27T16:00:24.062Z,9.68
2023-03-27T16:02:51.111Z,8.70
2023-03-27T16:05:18.088Z,6.10
2023-03-27T16:07:47.132Z,6.18
2023-03-27T16:10:15.290Z,8.37
2023-03-27T16:12:55.336Z,9.53
2023-03-27T16:15:32.621Z,6.43
2023-03-27T16:18:01.761Z,9.77
2023-03-27T16:20:33.361Z,8.47
2023-03-27T16:22:59.810Z,7.27
2023-03-27T16:25:26.310Z,8.60
2023-03-27T16:27:54.805Z,10.43
2023-03-27T16:30:29.295Z,9.03
2023-03-27T16:32:56.022Z,7.93
2023-03-27T16:35:22.930Z,9.67
2023-03-27T16:37:49.613Z,9.93
2023-03-27T16:40:16.371Z,9.87
2023-03-27T16:42:42.935Z,11.70
2023-03-27T16:45:09.539Z,8.57
2023-03-27T16:47:36.236Z,8.20
2023-03-27T16:50:11.254Z,6.53
2023-03-27T16:52:40.287Z,9.70
2023-03-27T16:55:07.766Z,9.87
2023-03-27T16:57:34.589Z,7.00
2023-03-27T17:00:01.209Z,8.13
2023-03-27T17:02:28.810Z,4.67
2023-03-27T17:04:55.372Z,5.87
2023-03-27T17:07:21.874Z,8.17
2023-03-27T17:09:48.426Z,11.07
2023-03-27T17:12:14.900Z,4.93
2023-03-27T17:14:41.363Z,6.60
2023-03-27T17:17:07.878Z,5.33
2023-03-27T17:19:34.261Z,4.93
2023-03-27T17:22:00.752Z,4.50
2023-03-27T17:24:27.245Z,5.67
2023-03-27T17:26:53.696Z,6.87
2023-03-27T17:29:20.281Z,6.20
2023-03-27T17:31:46.809Z,5.17
2023-03-27T17:34:13.234Z,5.83
2023-03-27T17:36:47.083Z,5.80
2023-03-27T17:39:16.246Z,5.90
2023-03-27T17:41:42.666Z,4.43
2023-03-27T17:44:10.555Z,8.77
2023-03-27T17:46:37.168Z,9.20
2023-03-27T17:49:04.021Z,7.87
2023-03-27T17:51:30.571Z,6.30
2023-03-27T17:53:57.066Z,10.57
2023-03-27T17:56:23.667Z,9.77
2023-03-27T17:58:50.291Z,8.13
2023-03-27T18:01:18.427Z,10.47
2023-03-27T18:03:45.199Z,10.53
2023-03-27T18:06:11.830Z,11.37
2023-03-27T18:08:38.377Z,15.70
2023-03-27T18:11:09.216Z,9.87
2023-03-27T18:13:36.686Z,11.43
2023-03-27T18:16:06.762Z,8.97
2023-03-27T18:18:34.315Z,7.05
2023-03-27T18:21:01.117Z,11.47
2023-03-27T18:23:28.185Z,11.83
2023-03-27T18:25:58.158Z,12.13
2023-03-27T18:28:25.159Z,7.40
2023-03-27T18:30:59.942Z,7.23
2023-03-27T18:33:26.697Z,8.77
2023-03-27T18:35:55.649Z,7.90
2023-03-27T18:38:23.277Z,7.77
2023-03-27T18:40:49.958Z,8.70
2023-03-27T18:43:17.198Z,7.13
2023-03-27T18:45:44.208Z,6.77
2023-03-27T18:48:11.237Z,5.03
2023-03-27T18:50:37.834Z,7.67
2023-03-27T18:53:04.821Z,6.97
2023-03-27T18:55:32.326Z,9.80
2023-03-27T18:57:58.836Z,7.83
2023-03-27T19:00:25.186Z,6.60
2023-03-27T19:02:51.670Z,6.70
2023-03-27T19:05:18.301Z,9.60
2023-03-27T19:07:45.303Z,7.33
2023-03-27T19:10:12.745Z,10.20
2023-03-27T19:12:39.311Z,9.27
2023-03-27T19:15:17.230Z,7.30
2023-03-27T19:17:46.204Z,8.50
2023-03-27T19:20:13.641Z,7.27
2023-03-27T19:22:40.147Z,9.50
2023-03-27T19:25:07.157Z,5.23
2023-03-27T19:27:38.482Z,6.97
2023-03-27T19:30:06.797Z,9.37
2023-03-27T19:32:33.228Z,11.93
2023-03-27T19:34:59.685Z,7.37
2023-03-27T19:37:26.167Z,8.13
2023-03-27T19:39:52.640Z,7.30
2023-03-27T19:42:19.264Z,20.13
2023-03-27T19:44:45.664Z,15.67
2023-03-27T19:47:12.124Z,16.77
2023-03-27T19:49:38.598Z,15.30
2023-03-27T19:52:04.979Z,22.73
2023-03-27T19:54:31.568Z,19.90
2023-03-27T19:56:58.063Z,9.47
2023-03-27T19:59:30.933Z,9.23
2023-03-27T20:01:57.734Z,6.40
2023-03-27T20:04:24.165Z,9.07
2023-03-27T20:06:50.551Z,10.60
2023-03-27T20:09:17.439Z,8.83
2023-03-27T20:11:43.855Z,8.13
2023-03-27T20:14:10.876Z,10.90
2023-03-27T20:16:38.564Z,6.70
2023-03-27T20:19:05.276Z,8.27
2023-03-27T20:21:33.598Z,6.53
2023-03-27T20:24:00.182Z,5.77
2023-03-27T20:26:28.096Z,5.53
2023-03-27T20:28:54.456Z,9.77
2023-03-27T20:31:21.103Z,12.17
2023-03-27T20:33:47.792Z,4.30
2023-03-27T20:36:14.319Z,4.57
2023-03-27T20:38:40.798Z,5.10
2023-03-27T20:41:07.236Z,5.60
2023-03-27T20:43:38.489Z,6.10
2023-03-27T20:48:40.101Z,6.50
2023-03-27T20:51:17.587Z,4.57
2023-03-27T20:53:53.922Z,7.30
2023-03-27T20:56:20.885Z,6.90
2023-03-27T20:58:47.300Z,7.47
2023-03-27T21:01:14.274Z,7.27
2023-03-27T21:03:42.623Z,6.70
2023-03-27T21:06:10.426Z,5.73
2023-03-27T21:08:37.183Z,4.17
2023-03-27T21:11:03.974Z,5.93
2023-03-27T21:13:30.936Z,7.23
2023-03-27T21:15:57.720Z,7.90
2023-03-27T21:18:24.952Z,10.57
2023-03-27T21:20:51.607Z,11.03
2023-03-27T21:23:18.153Z,11.13
2023-03-27T21:25:44.681Z,11.20
2023-03-27T21:28:11.350Z,8.50
2023-03-27T21:30:46.304Z,11.53
2023-03-27T21:33:17.974Z,7.90
2023-03-27T21:35:48.070Z,6.80
2023-03-27T21:38:15.551Z,6.00
2023-03-27T21:40:42.832Z,6.23
2023-03-27T21:43:09.271Z,6.90
2023-03-27T21:45:36.070Z,7.77
2023-03-27T21:48:02.622Z,6.40
2023-03-27T21:50:28.970Z,6.60
2023-03-27T21:52:55.628Z,8.53
2023-03-27T21:55:22.067Z,9.97
2023-03-27T21:57:48.393Z,8.60
2023-03-27T22:00:15.689Z,7.30
2023-03-27T22:02:42.794Z,7.43
2023-03-27T22:05:09.614Z,7.83
2023-03-27T22:07:35.999Z,4.77
2023-03-27T22:10:05.383Z,7.73
2023-03-27T22:12:34.040Z,6.40
2023-03-27T22:15:00.471Z,6.43
2023-03-27T22:17:26.977Z,5.47
2023-03-27T22:19:54.594Z,4.63
2023-03-27T22:22:20.977Z,5.70
2023-03-27T22:24:47.464Z,9.13
2023-03-27T22:27:13.811Z,5.43
2023-03-27T22:29:40.321Z,6.77
2023-03-27T22:32:07.041Z,6.70
2023-03-27T22:34:33.405Z,5.53
2023-03-27T22:37:01.677Z,5.53
2023-03-27T22:39:28.147Z,5.57
2023-03-27T22:41:54.496Z,8.53
2023-03-27T22:44:21.409Z,7.30
2023-03-27T22:46:47.997Z,5.80
2023-03-27T22:49:14.808Z,8.00
2023-03-27T22:51:41.173Z,5.30
2023-03-27T22:54:07.670Z,6.40
2023-03-27T22:56:34.157Z,6.17
2023-03-27T22:59:00.644Z,6.87
2023-03-27T23:01:27.391Z,8.73
2023-03-27T23:03:53.921Z,6.77
2023-03-27T23:06:22.219Z,6.07
2023-03-27T23:08:49.216Z,6.73
2023-03-27T23:11:15.802Z,5.97
2023-03-27T23:13:42.531Z,8.30
2023-03-27T23:16:09.344Z,6.87
2023-03-27T23:18:36.029Z,8.43
2023-03-27T23:21:03.921Z,6.50
2023-03-27T23:23:31.371Z,7.40
2023-03-27T23:25:58.870Z,7.63
2023-03-27T23:28:26.334Z,8.17
2023-03-27T23:30:56.825Z,6.70
2023-03-27T23:33:25.208Z,6.78
2023-03-27T23:36:00.674Z,7.90
2023-03-27T23:38:27.581Z,6.83
2023-03-27T23:40:54.889Z,7.80
2023-03-27T23:43:21.430Z,8.00
2023-03-27T23:45:47.859Z,8.70
2023-03-27T23:48:14.295Z,6.70
2023-03-27T23:50:40.655Z,5.27
2023-03-27T23:53:07.077Z,8.30
2023-03-27T23:55:33.637Z,8.77
2023-03-27T23:58:00.049Z,5.03
